Time;durP1;ratioP1;P1;durP2;ratioP2;P2;SDS_P1;SDS_P2;PMS_P1;PMS_P2;Temp;Humidity;BMP_temperature;BMP_pressure;BME280_temperature;BME280_humidity;BME280_pressure;Samples;Min_cycle;Max_cycle;Signal;HPM_P1;HPM_P2
2022/09/21 00:00:37;;;;;;;1.80;1.40;;;10.70;77.70;;;;;;5066978;28;20214;-75
2022/09/21 00:03:03;;;;;;;0.90;0.90;;;10.70;77.20;;;;;;5070332;28;20167;-74
2022/09/21 00:05:30;;;;;;;1.13;1.13;;;10.70;77.60;;;;;;5076026;28;20189;-75
2022/09/21 00:07:59;;;;;;;1.63;1.40;;;10.70;77.80;;;;;;5077652;28;20264;-73
2022/09/21 00:10:25;;;;;;;5.28;1.30;;;10.70;77.80;;;;;;5052382;28;20276;-72
2022/09/21 00:12:52;;;;;;;1.88;1.58;;;10.60;78.10;;;;;;5074727;28;20624;-74
2022/09/21 00:15:18;;;;;;;1.30;1.20;;;10.60;77.80;;;;;;5073729;28;20596;-72
2022/09/21 00:17:46;;;;;;;3.45;1.20;;;10.60;77.70;;;;;;5058751;28;20565;-74
2022/09/21 00:20:12;;;;;;;1.52;1.42;;;10.60;78.10;;;;;;5070180;28;20221;-72
2022/09/21 00:22:37;;;;;;;1.20;1.20;;;10.50;78.20;;;;;;5074134;28;20807;-73
2022/09/21 00:25:04;;;;;;;1.30;1.20;;;10.50;78.30;;;;;;5074437;28;20251;-73
2022/09/21 00:27:30;;;;;;;1.25;1.15;;;10.40;79.10;;;;;;5070528;28;20186;-74
2022/09/21 00:29:57;;;;;;;1.15;1.15;;;10.40;78.20;;;;;;5070874;28;20194;-74
2022/09/21 00:32:26;;;;;;;1.60;1.50;;;10.30;78.90;;;;;;5075555;28;20176;-74
2022/09/21 00:34:52;;;;;;;1.27;1.23;;;10.30;78.40;;;;;;5070358;28;20258;-74
2022/09/21 00:37:19;;;;;;;2.63;1.20;;;10.30;78.80;;;;;;5067655;28;20183;-74
2022/09/21 00:39:45;;;;;;;1.10;1.10;;;10.20;78.80;;;;;;5071345;28;20198;-73
2022/09/21 00:42:27;;;;;;;3.90;1.03;;;10.20;78.70;;;;;;5071043;28;20217;-74
2022/09/21 00:44:53;;;;;;;4.43;1.07;;;10.20;79.00;;;;;;5063438;28;20209;-74
2022/09/21 00:47:25;;;;;;;1.17;1.08;;;10.10;79.40;;;;;;5068838;28;20171;-74
2022/09/21 00:49:56;;;;;;;1.27;1.10;;;10.10;79.00;;;;;;5052578;28;20170;-74
2022/09/21 00:52:23;;;;;;;0.90;0.90;;;10.10;79.40;;;;;;5063408;28;20260;-75
2022/09/21 00:54:56;;;;;;;0.97;0.97;;;10.00;79.60;;;;;;5065193;28;20550;-74
2022/09/21 00:57:26;;;;;;;1.03;1.03;;;10.00;79.80;;;;;;5076613;28;20179;-74
2022/09/21 00:59:55;;;;;;;1.07;1.07;;;10.00;79.40;;;;;;5065881;28;20628;-73
2022/09/21 01:02:21;;;;;;;1.00;1.00;;;9.90;80.00;;;;;;5053593;28;20208;-74
2022/09/21 01:04:47;;;;;;;1.57;1.30;;;9.90;79.90;;;;;;5068933;28;20264;-74
2022/09/21 01:07:17;;;;;;;1.10;1.00;;;9.80;80.20;;;;;;5074820;28;20175;-74
2022/09/21 01:09:46;;;;;;;1.87;1.20;;;9.80;79.60;;;;;;5071346;28;20178;-74
2022/09/21 01:12:25;;;;;;;1.17;0.70;;;9.80;79.70;;;;;;5067597;28;20260;-73
2022/09/21 01:15:14;;;;;;;0.93;0.93;;;9.70;79.50;;;;;;5050291;28;20269;-73
2022/09/21 01:17:51;;;;;;;0.90;0.90;;;9.70;79.60;;;;;;5069955;28;20236;-73
2022/09/21 01:20:48;;;;;;;1.10;1.10;;;9.70;80.00;;;;;;5067417;28;20290;-73
2022/09/21 01:23:39;;;;;;;1.37;1.20;;;9.70;80.40;;;;;;5070859;28;20245;-73
2022/09/21 01:26:15;;;;;;;0.80;0.80;;;9.70;80.60;;;;;;5072341;28;20174;-72
2022/09/21 01:28:56;;;;;;;1.80;0.90;;;9.60;80.70;;;;;;5051360;28;20186;-75
2022/09/21 01:31:27;;;;;;;1.03;0.93;;;9.60;80.60;;;;;;5068759;28;20226;-75
2022/09/21 01:33:58;;;;;;;0.70;0.70;;;9.50;80.90;;;;;;5065885;28;20183;-73
2022/09/21 01:36:29;;;;;;;0.70;0.70;;;9.50;81.00;;;;;;5068092;28;20788;-73
2022/09/21 01:39:02;;;;;;;0.60;0.60;;;9.50;81.00;;;;;;5069761;28;20175;-73
2022/09/21 01:41:30;;;;;;;0.83;0.83;;;9.40;81.40;;;;;;5066561;28;20269;-73
2022/09/21 01:44:07;;;;;;;0.77;0.77;;;9.40;81.40;;;;;;5072320;28;20186;-73
2022/09/21 01:46:34;;;;;;;0.60;0.60;;;9.30;81.90;;;;;;5075222;28;20201;-74
2022/09/21 01:49:15;;;;;;;0.80;0.80;;;9.30;82.00;;;;;;5073760;28;20175;-74
2022/09/21 01:51:47;;;;;;;0.93;0.80;;;9.20;81.60;;;;;;5066066;28;20203;-73
2022/09/21 01:54:19;;;;;;;0.70;0.70;;;9.20;81.90;;;;;;5079874;28;20187;-74
2022/09/21 01:57:06;;;;;;;0.80;0.80;;;9.20;81.90;;;;;;5057167;28;20190;-75
2022/09/21 01:59:57;;;;;;;0.70;0.70;;;9.20;81.80;;;;;;5049574;28;20938;-73
2022/09/21 02:02:43;;;;;;;0.70;0.70;;;9.20;82.10;;;;;;5072423;28;20256;-74
2022/09/21 02:05:10;;;;;;;0.83;0.70;;;9.10;81.40;;;;;;5074150;28;20193;-73
2022/09/21 02:07:38;;;;;;;0.90;0.90;;;9.10;81.50;;;;;;5074762;28;20238;-73
2022/09/21 02:10:07;;;;;;;0.70;0.70;;;9.10;81.50;;;;;;5078546;28;20179;-74
2022/09/21 02:12:33;;;;;;;1.10;0.77;;;9.10;81.50;;;;;;5075495;28;20240;-73
2022/09/21 02:15:00;;;;;;;0.93;0.90;;;9.10;81.70;;;;;;5070489;28;20174;-74
2022/09/21 02:17:41;;;;;;;1.27;0.80;;;9.10;82.00;;;;;;5074141;28;20175;-73
2022/09/21 02:20:35;;;;;;;0.80;0.63;;;9.10;82.00;;;;;;5077345;28;20186;-73
2022/09/21 02:23:31;;;;;;;1.63;0.70;;;9.10;81.10;;;;;;5056050;28;20274;-73
2022/09/21 02:26:15;;;;;;;0.50;0.50;;;9.00;81.20;;;;;;5054904;28;20205;-73
2022/09/21 02:29:00;;;;;;;0.60;0.60;;;9.00;81.80;;;;;;5076461;28;20171;-73
2022/09/21 02:31:48;;;;;;;0.70;0.70;;;9.00;81.40;;;;;;5052014;28;20265;-73
2022/09/21 02:34:32;;;;;;;0.50;0.50;;;9.00;81.30;;;;;;5076299;28;20628;-73
2022/09/21 02:37:04;;;;;;;0.53;0.53;;;9.00;81.30;;;;;;5075445;28;21493;-74
2022/09/21 02:39:53;;;;;;;0.60;0.60;;;9.00;81.60;;;;;;5070074;28;20243;-73
2022/09/21 02:42:26;;;;;;;0.77;0.63;;;9.00;81.40;;;;;;5071352;28;20187;-74
2022/09/21 02:45:08;;;;;;;0.80;0.80;;;9.00;81.50;;;;;;5049121;28;20260;-73
2022/09/21 02:48:06;;;;;;;0.60;0.60;;;9.00;81.60;;;;;;5069238;28;20193;-74
2022/09/21 02:50:41;;;;;;;0.50;0.50;;;9.00;81.40;;;;;;5050515;28;20199;-74
2022/09/21 02:53:10;;;;;;;0.70;0.70;;;8.90;81.40;;;;;;5067106;28;20186;-73
2022/09/21 02:55:36;;;;;;;0.93;0.87;;;8.90;81.70;;;;;;5071838;28;20190;-74
2022/09/21 02:58:06;;;;;;;1.30;1.20;;;8.90;82.10;;;;;;5072087;28;20209;-73
2022/09/21 03:00:34;;;;;;;1.30;1.00;;;8.90;82.40;;;;;;5067646;28;20892;-73
2022/09/21 03:02:59;;;;;;;1.10;1.10;;;8.90;82.70;;;;;;5063306;28;20619;-75
2022/09/21 03:05:27;;;;;;;1.00;1.00;;;8.90;82.90;;;;;;5079494;28;20221;-73
2022/09/21 03:07:53;;;;;;;1.03;1.03;;;8.80;83.10;;;;;;5070235;28;20183;-73
2022/09/21 03:10:18;;;;;;;1.10;1.10;;;8.80;83.00;;;;;;5071931;28;20185;-73
2022/09/21 03:12:44;;;;;;;1.20;0.90;;;8.80;82.80;;;;;;5059120;28;20191;-73
2022/09/21 03:15:10;;;;;;;0.90;0.90;;;8.70;82.50;;;;;;5049638;28;20191;-73
2022/09/21 03:17:36;;;;;;;0.80;0.80;;;8.70;82.30;;;;;;5069840;28;20186;-73
2022/09/21 03:20:01;;;;;;;2.13;0.80;;;8.70;82.50;;;;;;5072288;28;20203;-73
2022/09/21 03:22:27;;;;;;;0.87;0.63;;;8.60;83.10;;;;;;5070108;28;20186;-73
2022/09/21 03:24:56;;;;;;;2.20;0.70;;;8.70;83.20;;;;;;5055002;28;20178;-75
2022/09/21 03:27:23;;;;;;;0.60;0.60;;;8.70;83.70;;;;;;5050831;28;20194;-72
2022/09/21 03:29:48;;;;;;;0.80;0.80;;;8.60;83.50;;;;;;5072731;28;20179;-75
2022/09/21 03:32:14;;;;;;;2.87;0.93;;;8.60;83.50;;;;;;5069840;28;20182;-75
2022/09/21 03:34:40;;;;;;;0.77;0.77;;;8.60;83.10;;;;;;5070003;28;20201;-73
2022/09/21 03:37:07;;;;;;;0.80;0.80;;;8.60;82.80;;;;;;5066964;28;20679;-73
2022/09/21 03:39:33;;;;;;;2.53;0.93;;;8.50;82.70;;;;;;5066919;28;20230;-73
2022/09/21 03:41:59;;;;;;;1.63;1.07;;;8.50;83.10;;;;;;5053486;28;20178;-73
2022/09/21 03:44:25;;;;;;;0.67;0.63;;;8.50;84.00;;;;;;5070555;28;20656;-76
2022/09/21 03:46:51;;;;;;;0.70;0.70;;;8.50;83.80;;;;;;5070346;28;20179;-73
2022/09/21 03:49:18;;;;;;;0.83;0.83;;;8.50;83.90;;;;;;5074563;28;20214;-74
2022/09/21 03:51:45;;;;;;;0.83;0.83;;;8.50;83.80;;;;;;5050305;28;20620;-74
2022/09/21 03:54:11;;;;;;;1.00;1.00;;;8.50;83.90;;;;;;5064800;28;20187;-74
2022/09/21 03:56:36;;;;;;;1.67;0.80;;;8.50;84.20;;;;;;5069999;28;20175;-74
2022/09/21 03:59:03;;;;;;;1.47;0.93;;;8.50;84.50;;;;;;5063425;28;20952;-75
2022/09/21 04:01:28;;;;;;;1.43;1.30;;;8.50;84.40;;;;;;5064826;28;20195;-74
2022/09/21 04:03:54;;;;;;;1.07;1.07;;;8.50;84.60;;;;;;5064912;28;20236;-72
2022/09/21 04:06:20;;;;;;;2.83;1.10;;;8.50;84.70;;;;;;5045736;28;20189;-74
2022/09/21 04:08:46;;;;;;;4.17;1.03;;;8.50;84.60;;;;;;5072746;28;20254;-74
2022/09/21 04:11:14;;;;;;;3.00;0.67;;;8.40;84.90;;;;;;5068221;28;20291;-73
2022/09/21 04:13:41;;;;;;;1.30;1.20;;;8.50;85.00;;;;;;5073252;28;20170;-74
2022/09/21 04:16:08;;;;;;;0.87;0.80;;;8.50;85.00;;;;;;5051373;28;20167;-73
2022/09/21 04:18:35;;;;;;;1.27;1.00;;;8.50;84.90;;;;;;5051881;28;20206;-74
2022/09/21 04:21:00;;;;;;;1.87;0.90;;;8.50;85.60;;;;;;5064828;28;20218;-75
2022/09/21 04:23:26;;;;;;;0.70;0.70;;;8.50;86.10;;;;;;5069594;28;20192;-74
2022/09/21 04:25:54;;;;;;;0.70;0.70;;;8.60;86.10;;;;;;5070370;28;20624;-76
2022/09/21 04:28:19;;;;;;;1.23;0.63;;;8.60;86.20;;;;;;5057653;28;20637;-76
2022/09/21 04:30:45;;;;;;;1.93;1.03;;;8.70;86.00;;;;;;5079823;28;20214;-74
2022/09/21 04:33:11;;;;;;;0.90;0.90;;;8.70;85.30;;;;;;5077761;28;20280;-74
2022/09/21 04:35:37;;;;;;;2.33;0.63;;;8.80;85.40;;;;;;5054029;28;20700;-75
2022/09/21 04:38:03;;;;;;;0.73;0.67;;;8.80;85.60;;;;;;5047562;28;20192;-74
2022/09/21 04:40:29;;;;;;;4.17;0.83;;;8.90;85.60;;;;;;5055518;28;20218;-76
2022/09/21 04:42:55;;;;;;;1.07;1.07;;;8.90;85.60;;;;;;5048810;28;20221;-75
2022/09/21 04:45:23;;;;;;;1.07;1.07;;;9.00;85.40;;;;;;5061934;28;20644;-77
2022/09/21 04:47:49;;;;;;;1.60;1.00;;;9.00;85.60;;;;;;5057566;28;20210;-76
2022/09/21 04:50:15;;;;;;;2.20;1.00;;;9.00;85.80;;;;;;5063829;28;20209;-77
2022/09/21 04:52:41;;;;;;;1.07;1.07;;;9.10;85.50;;;;;;5068804;28;20186;-76
2022/09/21 04:55:07;;;;;;;2.17;0.90;;;9.10;85.30;;;;;;5044288;28;20186;-76
2022/09/21 04:57:34;;;;;;;0.80;0.80;;;9.10;85.20;;;;;;5063883;28;20751;-75
2022/09/21 05:00:00;;;;;;;0.97;0.97;;;9.20;85.10;;;;;;5068808;28;20234;-76
2022/09/21 05:02:26;;;;;;;0.90;0.90;;;9.30;84.80;;;;;;5069986;28;20171;-75
2022/09/21 05:04:52;;;;;;;0.80;0.63;;;9.30;84.60;;;;;;5063649;28;20201;-76
2022/09/21 05:07:17;;;;;;;0.83;0.80;;;9.40;84.50;;;;;;5071375;28;20179;-76
2022/09/21 05:10:01;;;;;;;2.10;1.00;;;9.40;84.40;;;;;;5068356;28;20214;-75
2022/09/21 05:12:27;;;;;;;2.20;0.80;;;9.50;84.20;;;;;;5068869;28;20849;-76
2022/09/21 05:14:54;;;;;;;1.07;0.80;;;9.60;84.00;;;;;;5068139;28;20175;-75
2022/09/21 05:17:21;;;;;;;0.70;0.70;;;9.60;83.90;;;;;;5052160;28;20175;-77
2022/09/21 05:19:48;;;;;;;1.40;1.30;;;9.70;84.00;;;;;;5054574;28;20203;-75
2022/09/21 05:22:14;;;;;;;2.57;1.43;;;9.80;84.00;;;;;;5070468;28;20197;-76
2022/09/21 05:24:39;;;;;;;2.00;1.20;;;9.80;84.20;;;;;;5068985;28;20179;-76
2022/09/21 05:27:05;;;;;;;1.70;1.53;;;9.90;84.10;;;;;;5075537;28;20245;-76
2022/09/21 05:29:31;;;;;;;3.13;1.60;;;9.90;83.90;;;;;;5072355;28;20189;-76
2022/09/21 05:32:07;;;;;;;1.50;1.37;;;10.00;83.60;;;;;;5080105;28;20175;-76
2022/09/21 05:34:35;;;;;;;1.60;1.60;;;10.10;83.30;;;;;;5075724;28;20179;-75
2022/09/21 05:37:04;;;;;;;1.17;1.07;;;10.20;83.30;;;;;;5073885;28;20178;-74
2022/09/21 05:39:30;;;;;;;2.40;1.27;;;10.20;83.40;;;;;;5071974;28;20237;-76
2022/09/21 05:41:56;;;;;;;0.95;0.95;;;10.30;83.20;;;;;;5075194;28;20245;-76
2022/09/21 05:44:22;;;;;;;1.20;1.20;;;10.40;82.90;;;;;;5076711;28;20237;-76
2022/09/21 05:46:54;;;;;;;1.47;1.47;;;10.50;82.80;;;;;;5075765;28;20328;-77
2022/09/21 05:49:28;;;;;;;1.90;1.15;;;10.60;82.40;;;;;;5068855;28;20183;-77
2022/09/21 05:52:21;;;;;;;1.20;1.10;;;10.60;82.40;;;;;;5073282;28;20179;-76
2022/09/21 05:55:22;;;;;;;1.07;0.90;;;10.80;82.00;;;;;;5077080;28;20226;-77
2022/09/21 05:58:16;;;;;;;1.02;1.02;;;10.90;81.90;;;;;;5069753;28;20198;-75
2022/09/21 06:00:53;;;;;;;1.83;1.35;;;11.00;81.90;;;;;;5006168;28;20228;-76
2022/09/21 06:03:29;;;;;;;1.30;1.20;;;11.10;81.70;;;;;;4981074;28;20196;-75
2022/09/21 06:05:58;;;;;;;3.03;1.00;;;11.20;81.50;;;;;;5004041;28;20204;-76
2022/09/21 06:08:25;;;;;;;2.97;1.35;;;11.30;81.40;;;;;;5005395;28;20193;-76
2022/09/21 06:10:51;;;;;;;2.95;1.70;;;11.40;81.40;;;;;;5005247;28;20264;-76
2022/09/21 06:13:18;;;;;;;5.88;1.52;;;11.50;81.20;;;;;;5004686;28;20212;-76
2022/09/21 06:15:43;;;;;;;1.23;1.23;;;11.70;81.20;;;;;;5005796;28;20185;-76
2022/09/21 06:18:09;;;;;;;1.77;1.58;;;11.80;81.10;;;;;;5005240;28;20677;-76
2022/09/21 06:20:35;;;;;;;1.30;1.20;;;11.90;80.90;;;;;;5006154;28;20336;-75
2022/09/21 06:23:06;;;;;;;2.35;1.42;;;12.00;80.80;;;;;;5004574;28;20212;-76
2022/09/21 06:25:31;;;;;;;1.42;1.42;;;12.10;80.60;;;;;;5003501;28;20403;-77
2022/09/21 06:28:09;;;;;;;1.52;1.52;;;12.30;80.20;;;;;;5006057;28;20185;-76
2022/09/21 06:30:35;;;;;;;1.55;1.45;;;12.40;79.70;;;;;;5004900;28;20185;-76
2022/09/21 06:33:02;;;;;;;1.27;1.23;;;12.50;80.00;;;;;;5002995;28;20284;-76
2022/09/21 06:35:30;;;;;;;1.05;1.05;;;12.60;79.80;;;;;;5000949;28;20564;-75
2022/09/21 06:38:06;;;;;;;0.95;0.95;;;12.70;79.50;;;;;;5043323;28;20343;-76
2022/09/21 06:40:34;;;;;;;0.98;0.98;;;12.80;78.40;;;;;;5071201;28;20399;-77
2022/09/21 06:43:04;;;;;;;0.98;0.98;;;12.90;78.80;;;;;;5049295;28;20179;-76
2022/09/21 06:45:30;;;;;;;1.08;1.00;;;13.00;78.20;;;;;;5075450;28;20579;-75
2022/09/21 06:47:56;;;;;;;0.90;0.90;;;13.10;78.60;;;;;;5070377;28;20188;-77
2022/09/21 06:50:22;;;;;;;1.08;1.08;;;13.20;78.60;;;;;;5067869;28;20183;-77
2022/09/21 06:52:48;;;;;;;1.70;1.40;;;13.30;78.90;;;;;;5070071;28;20631;-76
2022/09/21 06:55:14;;;;;;;1.67;1.33;;;13.40;77.70;;;;;;5073778;28;20255;-77
2022/09/21 06:57:40;;;;;;;1.05;0.80;;;13.50;78.40;;;;;;5067936;28;20171;-76
2022/09/21 07:00:08;;;;;;;0.90;0.90;;;13.70;77.70;;;;;;5069237;28;20251;-77
2022/09/21 07:02:34;;;;;;;0.90;0.90;;;13.80;76.60;;;;;;5052324;28;20661;-76
2022/09/21 07:05:00;;;;;;;0.88;0.80;;;13.70;75.80;;;;;;5069736;28;20316;-75
2022/09/21 07:07:31;;;;;;;1.85;0.70;;;13.80;75.80;;;;;;5068967;28;20185;-76
2022/09/21 07:09:59;;;;;;;0.73;0.73;;;13.70;76.20;;;;;;5068165;28;20183;-77
2022/09/21 07:12:27;;;;;;;1.23;0.85;;;13.80;76.00;;;;;;5072333;28;20181;-75
2022/09/21 07:14:52;;;;;;;0.77;0.77;;;13.80;75.60;;;;;;5069638;28;20207;-75
2022/09/21 07:17:18;;;;;;;0.70;0.70;;;13.90;75.80;;;;;;5074344;28;20568;-76
2022/09/21 07:19:43;;;;;;;1.65;0.80;;;13.80;75.90;;;;;;5073373;28;20864;-76
2022/09/21 07:22:09;;;;;;;0.85;0.85;;;13.80;75.70;;;;;;5068153;28;20175;-77
2022/09/21 07:24:35;;;;;;;0.60;0.60;;;13.90;76.10;;;;;;5073752;28;20175;-75
2022/09/21 07:27:00;;;;;;;0.57;0.57;;;13.90;76.00;;;;;;5074889;28;20278;-77
2022/09/21 07:29:26;;;;;;;0.85;0.80;;;14.00;76.00;;;;;;5067871;28;20600;-76
2022/09/21 07:31:52;;;;;;;0.60;0.60;;;13.80;76.00;;;;;;5075355;28;20183;-76
2022/09/21 07:34:17;;;;;;;0.73;0.73;;;13.80;76.10;;;;;;5075224;28;20174;-76
2022/09/21 07:36:43;;;;;;;0.88;0.88;;;13.70;75.80;;;;;;5072712;28;20255;-76
2022/09/21 07:39:09;;;;;;;1.95;0.70;;;13.60;76.40;;;;;;5071931;28;20183;-76
2022/09/21 07:41:35;;;;;;;0.68;0.68;;;13.80;76.20;;;;;;5068569;28;20312;-76
2022/09/21 07:44:02;;;;;;;0.85;0.85;;;13.80;76.00;;;;;;5071797;28;20178;-76
2022/09/21 07:46:28;;;;;;;0.52;0.52;;;13.90;75.90;;;;;;5075725;28;20247;-76
2022/09/21 07:48:55;;;;;;;0.65;0.65;;;13.90;75.40;;;;;;5075215;28;20182;-76
2022/09/21 07:51:21;;;;;;;0.80;0.80;;;14.10;75.70;;;;;;5068202;28;20255;-76
2022/09/21 07:53:47;;;;;;;0.80;0.80;;;14.20;75.80;;;;;;5075484;28;20356;-76
2022/09/21 07:56:16;;;;;;;2.17;0.90;;;14.40;75.20;;;;;;5073938;28;20270;-76
2022/09/21 08:01:27;;;;;;;0.52;0.52;;;14.70;74.70;;;;;;5069443;28;20258;-76
2022/09/21 08:03:55;;;;;;;1.63;0.70;;;14.80;74.10;;;;;;5071444;28;20183;-75
2022/09/21 08:06:23;;;;;;;0.75;0.75;;;14.90;74.20;;;;;;5073836;28;20383;-76
2022/09/21 08:08:49;;;;;;;1.48;0.70;;;14.90;72.70;;;;;;5076032;28;20232;-77
2022/09/21 08:11:21;;;;;;;0.60;0.60;;;14.80;72.30;;;;;;5069710;28;20186;-77
2022/09/21 08:13:47;;;;;;;1.85;0.80;;;14.80;72.50;;;;;;5048412;28;20183;-75
2022/09/21 08:16:13;;;;;;;0.57;0.57;;;14.80;72.70;;;;;;5068770;28;20236;-77
2022/09/21 08:18:40;;;;;;;1.13;1.02;;;14.90;72.90;;;;;;5072679;28;20209;-75
2022/09/21 08:21:08;;;;;;;0.80;0.80;;;15.00;72.60;;;;;;5071639;28;20215;-76
2022/09/21 08:23:37;;;;;;;1.42;0.95;;;15.20;73.00;;;;;;5075924;28;20171;-76
2022/09/21 08:26:07;;;;;;;1.55;0.70;;;15.40;72.30;;;;;;5052440;28;20830;-76
2022/09/21 08:28:35;;;;;;;0.70;0.70;;;15.60;72.40;;;;;;5070617;28;20178;-75
2022/09/21 08:31:07;;;;;;;0.70;0.70;;;15.60;71.20;;;;;;5055209;28;20186;-76
2022/09/21 08:33:33;;;;;;;0.88;0.88;;;15.70;71.30;;;;;;5058941;28;20186;-77
2022/09/21 08:36:00;;;;;;;1.27;0.75;;;15.90;71.80;;;;;;5067459;28;20657;-76
2022/09/21 08:38:26;;;;;;;0.50;0.50;;;15.90;70.40;;;;;;5051539;28;20183;-76
2022/09/21 08:40:52;;;;;;;0.80;0.80;;;16.00;70.60;;;;;;5065364;28;20219;-77
2022/09/21 08:43:28;;;;;;;0.60;0.60;;;16.20;70.40;;;;;;5054598;28;20183;-77
2022/09/21 08:45:54;;;;;;;0.77;0.60;;;16.20;69.50;;;;;;5062175;28;20174;-76
2022/09/21 08:48:27;;;;;;;0.68;0.68;;;16.40;69.80;;;;;;5075166;28;20580;-76
2022/09/21 08:50:55;;;;;;;0.50;0.50;;;16.60;69.40;;;;;;5076540;28;20178;-76
2022/09/21 08:53:30;;;;;;;0.52;0.52;;;16.70;68.50;;;;;;5073619;28;20221;-77
2022/09/21 08:55:56;;;;;;;1.15;0.65;;;16.90;68.60;;;;;;5068744;28;20204;-76
2022/09/21 08:58:27;;;;;;;0.60;0.60;;;17.00;68.60;;;;;;5081622;28;20643;-76
2022/09/21 09:01:20;;;;;;;1.95;0.50;;;17.20;67.80;;;;;;5074593;28;20225;-74
2022/09/21 09:04:23;;;;;;;0.70;0.70;;;17.30;67.30;;;;;;5070470;28;20183;-74
2022/09/21 09:06:58;;;;;;;0.90;0.90;;;17.50;67.50;;;;;;5073666;28;20248;-75
2022/09/21 09:09:45;;;;;;;0.70;0.70;;;17.60;66.60;;;;;;5074137;28;20190;-76
2022/09/21 09:12:13;;;;;;;0.80;0.80;;;17.80;67.20;;;;;;5078277;28;20187;-77
2022/09/21 09:15:00;;;;;;;0.40;0.40;;;18.10;66.90;;;;;;5069730;28;20741;-76
2022/09/21 09:18:01;;;;;;;0.60;0.60;;;18.20;66.20;;;;;;5076085;28;20190;-76
2022/09/21 09:20:33;;;;;;;0.57;0.50;;;18.30;65.90;;;;;;5071498;28;20205;-75
2022/09/21 09:23:10;;;;;;;1.55;0.73;;;18.30;65.30;;;;;;5070011;28;20194;-76
2022/09/21 09:25:40;;;;;;;0.60;0.60;;;18.30;64.90;;;;;;5078540;28;20269;-76
2022/09/21 09:28:33;;;;;;;0.45;0.45;;;18.20;64.50;;;;;;5072422;28;20788;-76
2022/09/21 09:31:33;;;;;;;0.68;0.68;;;18.10;64.90;;;;;;5072690;28;20262;-75
2022/09/21 09:34:09;;;;;;;0.50;0.50;;;17.90;64.30;;;;;;5068198;28;20186;-75
2022/09/21 09:36:35;;;;;;;0.50;0.50;;;17.40;64.30;;;;;;5071882;28;20181;-76
2022/09/21 09:39:13;;;;;;;1.38;0.60;;;17.30;64.80;;;;;;5079726;28;20181;-77
2022/09/21 09:41:47;;;;;;;0.40;0.40;;;17.10;64.00;;;;;;5076261;28;20182;-76
2022/09/21 09:44:32;;;;;;;0.47;0.47;;;17.20;65.00;;;;;;5075377;28;20186;-76
2022/09/21 09:47:19;;;;;;;0.70;0.70;;;17.40;65.30;;;;;;4999110;28;20588;-76
2022/09/21 09:49:56;;;;;;;0.50;0.40;;;17.80;65.70;;;;;;4998222;28;20243;-76
2022/09/21 09:52:22;;;;;;;0.40;0.40;;;18.20;62.60;;;;;;4997960;28;20220;-76
2022/09/21 09:54:47;;;;;;;0.25;0.25;;;18.10;62.40;;;;;;4997254;28;20196;-75
2022/09/21 09:57:17;;;;;;;0.30;0.30;;;18.20;61.60;;;;;;4995098;28;20225;-77
2022/09/21 09:59:52;;;;;;;0.35;0.35;;;18.50;62.90;;;;;;4994293;28;20209;-77
2022/09/21 10:02:22;;;;;;;0.47;0.47;;;18.80;63.10;;;;;;4975857;28;20192;-77
2022/09/21 10:05:06;;;;;;;0.30;0.30;;;19.20;61.90;;;;;;4996619;28;20249;-76
2022/09/21 10:07:44;;;;;;;2.67;0.40;;;19.40;61.10;;;;;;4997709;28;20288;-75
2022/09/21 10:10:28;;;;;;;0.50;0.50;;;19.60;61.20;;;;;;4981112;28;20340;-76
2022/09/21 10:13:14;;;;;;;0.40;0.40;;;19.90;59.40;;;;;;4981848;28;20181;-75
2022/09/21 10:15:43;;;;;;;0.40;0.40;;;20.00;59.10;;;;;;4999395;28;20224;-74
2022/09/21 10:18:26;;;;;;;0.50;0.50;;;20.00;58.30;;;;;;5001125;28;20215;-75
2022/09/21 10:20:57;;;;;;;0.30;0.30;;;19.60;58.70;;;;;;4996070;28;20217;-76
2022/09/21 10:23:24;;;;;;;0.30;0.30;;;19.50;58.40;;;;;;5026185;28;20200;-76
2022/09/21 10:26:12;;;;;;;0.75;0.30;;;19.80;60.30;;;;;;5091921;28;20174;-77
2022/09/21 10:29:01;;;;;;;0.30;0.30;;;20.50;57.40;;;;;;5085804;28;20264;-76
2022/09/21 10:31:29;;;;;;;0.25;0.25;;;21.10;57.10;;;;;;5072213;28;20216;-77
2022/09/21 10:34:12;;;;;;;0.30;0.30;;;21.30;57.30;;;;;;5073960;28;20175;-74
2022/09/21 10:36:38;;;;;;;0.20;0.20;;;21.70;58.00;;;;;;5058083;28;20183;-76
2022/09/21 10:39:26;;;;;;;0.20;0.20;;;22.50;54.20;;;;;;5077316;28;20266;-76
2022/09/21 10:42:13;;;;;;;0.30;0.30;;;23.10;51.80;;;;;;5074148;28;20178;-75
2022/09/21 10:44:41;;;;;;;0.20;0.20;;;23.00;50.90;;;;;;5080136;28;20205;-76
2022/09/21 10:47:18;;;;;;;0.30;0.30;;;23.10;52.70;;;;;;5078797;28;20175;-76
2022/09/21 10:49:51;;;;;;;0.52;0.30;;;23.20;51.80;;;;;;5078651;28;20180;-75
2022/09/21 10:52:19;;;;;;;0.20;0.20;;;23.50;52.80;;;;;;5078041;28;20216;-75
2022/09/21 10:54:50;;;;;;;0.30;0.30;;;23.50;51.30;;;;;;5077982;28;20185;-75
2022/09/21 10:57:19;;;;;;;0.30;0.30;;;23.40;50.30;;;;;;5050055;28;20194;-75
2022/09/21 10:59:45;;;;;;;0.43;0.43;;;23.10;51.20;;;;;;5073948;28;20206;-76
2022/09/21 11:02:31;;;;;;;0.25;0.25;;;23.00;52.60;;;;;;5076737;28;20183;-75
2022/09/21 11:05:03;;;;;;;0.20;0.20;;;23.20;53.20;;;;;;5075439;28;20210;-76
2022/09/21 11:07:51;;;;;;;0.30;0.30;;;23.60;53.40;;;;;;5071891;28;20192;-75
2022/09/21 11:10:20;;;;;;;0.25;0.25;;;24.20;52.30;;;;;;5075290;28;20253;-74
2022/09/21 11:12:56;;;;;;;0.32;0.30;;;24.60;48.10;;;;;;5074233;28;20187;-75
2022/09/21 11:15:49;;;;;;;0.85;0.30;;;24.30;48.60;;;;;;5079607;28;20192;-76
2022/09/21 11:18:48;;;;;;;0.30;0.30;;;23.70;48.30;;;;;;5075289;28;20235;-77
2022/09/21 11:21:41;;;;;;;3.13;0.40;;;23.40;50.10;;;;;;5070177;28;20246;-75
2022/09/21 11:24:26;;;;;;;0.22;0.22;;;22.80;51.70;;;;;;5069818;28;20179;-76
2022/09/21 11:27:09;;;;;;;0.20;0.20;;;22.50;50.80;;;;;;5074777;28;20186;-75
2022/09/21 11:29:50;;;;;;;0.30;0.20;;;22.30;51.20;;;;;;5052186;28;20244;-76
2022/09/21 11:32:39;;;;;;;1.08;0.40;;;22.20;52.80;;;;;;5054045;28;20191;-75
2022/09/21 11:35:14;;;;;;;0.40;0.40;;;21.70;51.90;;;;;;5052104;28;20221;-75
2022/09/21 11:38:01;;;;;;;0.28;0.28;;;21.40;53.50;;;;;;5052739;28;20181;-76
2022/09/21 11:41:16;;;;;;;0.32;0.32;;;21.40;53.70;;;;;;5071649;28;20221;-77
2022/09/21 11:44:11;;;;;;;0.32;0.25;;;21.30;53.10;;;;;;4999550;28;20272;-76
2022/09/21 11:46:52;;;;;;;0.40;0.40;;;21.40;53.50;;;;;;4993009;28;20189;-76
2022/09/21 11:49:34;;;;;;;0.93;0.30;;;21.50;52.40;;;;;;4998816;28;20264;-75
2022/09/21 11:52:24;;;;;;;1.88;0.40;;;21.10;54.40;;;;;;4997946;28;20185;-75
2022/09/21 11:55:05;;;;;;;0.35;0.30;;;20.90;55.90;;;;;;4997764;28;20212;-76
2022/09/21 11:57:44;;;;;;;0.30;0.30;;;20.70;56.60;;;;;;4998746;28;20189;-75
2022/09/21 12:00:15;;;;;;;0.20;0.20;;;20.50;57.30;;;;;;4997602;28;20228;-75
2022/09/21 12:03:17;;;;;;;0.22;0.20;;;20.20;57.80;;;;;;4997923;28;20193;-76
2022/09/21 12:06:10;;;;;;;0.20;0.20;;;20.00;58.10;;;;;;4998475;28;20192;-75
2022/09/21 12:09:21;;;;;;;0.35;0.35;;;19.80;58.60;;;;;;4997163;28;20208;-75
2022/09/21 12:12:05;;;;;;;0.30;0.30;;;19.60;59.00;;;;;;4995562;28;20307;-75
2022/09/21 12:14:41;;;;;;;0.40;0.40;;;19.40;59.20;;;;;;5000028;28;20334;-75
2022/09/21 12:17:38;;;;;;;0.20;0.20;;;19.20;59.80;;;;;;5001009;28;20196;-76
2022/09/21 12:20:07;;;;;;;0.63;0.35;;;19.20;59.70;;;;;;5025389;28;20242;-76
2022/09/21 12:22:39;;;;;;;0.30;0.30;;;18.90;60.40;;;;;;5055239;28;20197;-76
2022/09/21 12:25:20;;;;;;;0.20;0.20;;;18.80;60.60;;;;;;5049930;28;20190;-74
2022/09/21 12:27:55;;;;;;;0.25;0.25;;;18.80;60.40;;;;;;5074155;28;20248;-75
2022/09/21 12:30:22;;;;;;;0.20;0.20;;;18.90;60.40;;;;;;5064842;28;20186;-75
2022/09/21 12:32:57;;;;;;;2.08;0.20;;;18.80;60.40;;;;;;5072043;28;20215;-75
2022/09/21 12:35:38;;;;;;;0.28;0.28;;;18.70;61.00;;;;;;5070429;28;20208;-76
2022/09/21 12:38:34;;;;;;;0.30;0.30;;;18.60;61.40;;;;;;5072119;28;20676;-76
2022/09/21 12:41:14;;;;;;;0.30;0.30;;;18.40;61.90;;;;;;5055659;28;20222;-75
2022/09/21 12:43:56;;;;;;;0.20;0.20;;;18.40;61.90;;;;;;5066365;28;20190;-73
2022/09/21 12:46:46;;;;;;;0.20;0.20;;;18.40;62.30;;;;;;5068494;28;20648;-75
2022/09/21 12:49:18;;;;;;;0.30;0.30;;;18.20;63.50;;;;;;5047845;28;20229;-75
2022/09/21 12:51:50;;;;;;;0.30;0.30;;;18.10;63.20;;;;;;5071218;28;20252;-76
2022/09/21 12:54:23;;;;;;;0.43;0.35;;;18.10;63.00;;;;;;5069538;28;21048;-75
2022/09/21 12:56:59;;;;;;;0.20;0.20;;;18.10;62.90;;;;;;5047251;28;22106;-76
2022/09/21 12:59:42;;;;;;;0.40;0.40;;;18.10;61.10;;;;;;5064879;28;20948;-75
2022/09/21 13:02:18;;;;;;;2.15;0.57;;;18.10;61.40;;;;;;5044883;28;20190;-74
2022/09/21 13:04:56;;;;;;;0.30;0.30;;;18.00;62.10;;;;;;5049867;28;20187;-76
2022/09/21 13:07:38;;;;;;;0.30;0.30;;;18.30;63.20;;;;;;5068416;28;20631;-75
2022/09/21 13:10:14;;;;;;;0.30;0.30;;;19.00;63.60;;;;;;5050667;28;20236;-75
2022/09/21 13:12:43;;;;;;;0.20;0.20;;;19.80;63.10;;;;;;5064750;28;20271;-74
2022/09/21 13:15:21;;;;;;;0.20;0.20;;;20.70;61.70;;;;;;5061470;28;20183;-75
2022/09/21 13:18:01;;;;;;;2.40;0.25;;;21.50;56.70;;;;;;5065931;28;20275;-75
2022/09/21 13:20:36;;;;;;;0.20;0.20;;;22.20;57.00;;;;;;5062241;28;20297;-75
2022/09/21 13:23:02;;;;;;;0.20;0.20;;;22.80;55.10;;;;;;5047198;28;20189;-75